Time;durP1;ratioP1;P1;durP2;ratioP2;P2;SDS_P1;SDS_P2;PMS_P1;PMS_P2;Temp;Humidity;BMP_temperature;BMP_pressure;BME280_temperature;BME280_humidity;BME280_pressure;Samples;Min_cycle;Max_cycle;Signal;HPM_P1;HPM_P2
2024/04/23 00:01:35;;;;;;;5.40;4.40;;;;;;;8.81;77.35;99863.68;107191;1257;71539;-38
2024/04/23 00:04:03;;;;;;;7.50;4.90;;;;;;;8.83;77.49;99859.02;107207;1258;60400;-38
2024/04/23 00:06:30;;;;;;;7.50;4.80;;;;;;;8.83;77.61;99861.14;107179;1258;60340;-38
2024/04/23 00:08:58;;;;;;;6.40;4.60;;;;;;;8.88;77.70;99858.20;107184;1257;73401;-38
2024/04/23 00:11:25;;;;;;;6.60;4.10;;;;;;;8.94;77.60;99859.63;107191;1257;67907;-38
2024/04/23 00:13:52;;;;;;;6.60;4.40;;;;;;;8.96;77.80;99864.48;107121;1257;72683;-38
2024/04/23 00:16:20;;;;;;;5.00;4.00;;;;;;;8.91;77.84;99865.41;107175;1257;60191;-38
2024/04/23 00:18:48;;;;;;;5.80;4.70;;;;;;;8.87;78.13;99866.81;107147;1257;60530;-38
2024/04/23 00:21:16;;;;;;;5.20;4.50;;;;;;;8.86;78.34;99867.55;107246;1257;73897;-39
2024/04/23 00:23:44;;;;;;;6.50;4.60;;;;;;;8.87;78.36;99871.91;107153;1262;68070;-39
2024/04/23 00:26:11;;;;;;;5.80;4.00;;;;;;;8.88;78.22;99871.33;107163;1258;71916;-39
2024/04/23 00:28:38;;;;;;;5.30;4.40;;;;;;;8.85;78.55;99870.92;107158;1259;61286;-39
2024/04/23 00:31:06;;;;;;;6.40;4.20;;;;;;;8.80;78.81;99876.15;107143;1261;62000;-39
2024/04/23 00:33:33;;;;;;;5.20;4.20;;;;;;;8.73;79.11;99878.15;107155;1257;74420;-39
2024/04/23 00:36:01;;;;;;;6.50;4.10;;;;;;;8.63;79.50;99881.52;107196;1260;67615;-39
2024/04/23 00:38:28;;;;;;;5.70;4.20;;;;;;;8.54;79.90;99883.83;107152;1257;72754;-39
2024/04/23 00:40:56;;;;;;;5.50;4.60;;;;;;;8.47;80.34;99885.88;107186;1260;61119;-38
2024/04/23 00:43:23;;;;;;;5.90;4.80;;;;;;;8.43;80.68;99887.27;107056;1257;61324;-38
2024/04/23 00:45:54;;;;;;;5.40;4.40;;;;;;;8.39;81.05;99882.29;107164;1257;74961;-38
2024/04/23 00:48:22;;;;;;;5.70;4.70;;;;;;;8.37;81.38;99882.52;107209;1257;67632;-38
2024/04/23 00:50:50;;;;;;;6.70;4.60;;;;;;;8.40;81.69;99888.80;107226;1256;72722;-38
2024/04/23 00:53:17;;;;;;;7.30;4.20;;;;;;;8.49;81.34;99890.90;107132;1257;61827;-38
2024/04/23 00:55:44;;;;;;;5.70;4.50;;;;;;;8.55;80.74;99893.52;107126;1256;61187;-38
2024/04/23 00:58:12;;;;;;;5.50;4.50;;;;;;;8.55;80.36;99897.38;107159;1257;75090;-38
2024/04/23 01:00:39;;;;;;;4.70;4.20;;;;;;;8.51;80.15;99895.91;107168;1257;66843;-38
2024/04/23 01:03:06;;;;;;;7.00;5.00;;;;;;;8.47;80.04;99894.52;107146;1258;71089;-38
2024/04/23 01:05:34;;;;;;;5.30;4.30;;;;;;;8.42;79.90;99902.61;107082;1257;61131;-38
2024/04/23 01:08:01;;;;;;;7.10;4.60;;;;;;;8.40;79.69;99900.84;107205;1257;61016;-38
2024/04/23 01:10:29;;;;;;;5.10;4.20;;;;;;;8.45;79.59;99899.63;107123;1257;74652;-38
2024/04/23 01:12:56;;;;;;;7.20;4.70;;;;;;;8.50;79.32;99904.98;107182;1262;67674;-38
2024/04/23 01:15:24;;;;;;;5.90;4.50;;;;;;;8.48;79.10;99906.30;107190;1259;71480;-38
2024/04/23 01:17:53;;;;;;;6.50;5.20;;;;;;;8.46;78.91;99912.05;107021;1258;61423;-38
2024/04/23 01:20:21;;;;;;;6.10;5.00;;;;;;;8.42;78.75;99913.04;107227;1257;61116;-38
2024/04/23 01:23:10;;;;;;;7.80;5.20;;;;;;;8.37;78.74;99909.01;107117;1257;73946;-38
2024/04/23 01:25:37;;;;;;;8.10;5.00;;;;;;;8.41;78.74;99912.55;107163;1257;67932;-38
2024/04/23 01:28:05;;;;;;;5.60;5.00;;;;;;;8.46;78.81;99914.33;107116;1257;71709;-38
2024/04/23 01:30:34;;;;;;;6.80;5.20;;;;;;;8.46;78.98;99910.66;107147;1256;61242;-38
2024/04/23 01:33:02;;;;;;;9.30;5.50;;;;;;;8.43;79.25;99908.21;107012;1257;61236;-38
2024/04/23 01:35:29;;;;;;;6.60;5.50;;;;;;;8.45;79.72;99912.23;107177;1262;74701;-38
2024/04/23 01:37:57;;;;;;;7.90;5.20;;;;;;;8.50;79.91;99914.58;107028;1257;67594;-38
2024/04/23 01:40:25;;;;;;;5.60;4.90;;;;;;;8.60;79.72;99908.38;107035;1257;72359;-38
2024/04/23 01:42:52;;;;;;;9.00;5.50;;;;;;;8.69;79.66;99912.18;106979;1258;61121;-38
2024/04/23 01:45:20;;;;;;;7.20;5.30;;;;;;;8.72;79.77;99912.58;106950;1257;59982;-38
2024/04/23 01:47:47;;;;;;;6.80;6.00;;;;;;;8.75;79.91;99914.99;107049;1257;74675;-38
2024/04/23 01:50:15;;;;;;;8.20;6.20;;;;;;;8.77;79.86;99915.90;106950;1257;67725;-38
2024/04/23 01:52:43;;;;;;;11.80;6.20;;;;;;;8.78;79.69;99915.77;107060;1258;72800;-38
2024/04/23 01:55:11;;;;;;;7.60;5.20;;;;;;;8.84;79.57;99918.16;106870;1257;61705;-38
2024/04/23 01:57:38;;;;;;;6.30;5.30;;;;;;;8.92;79.38;99915.50;107021;1257;61330;-39
2024/04/23 02:00:08;;;;;;;7.20;5.90;;;;;;;8.92;79.15;99919.27;107000;1264;73833;-39
2024/04/23 02:02:37;;;;;;;7.70;5.80;;;;;;;8.90;79.14;99917.77;107002;1257;67622;-39
2024/04/23 02:05:06;;;;;;;8.30;6.20;;;;;;;8.88;79.13;99922.77;107027;1257;71910;-39
2024/04/23 02:07:33;;;;;;;8.00;5.50;;;;;;;8.86;79.15;99920.88;106987;1257;61125;-39
2024/04/23 02:10:02;;;;;;;7.20;5.50;;;;;;;8.90;78.89;99922.01;107019;1258;61088;-39
2024/04/23 02:12:29;;;;;;;6.60;5.20;;;;;;;8.96;78.73;99918.50;107133;1257;74742;-38
2024/04/23 02:14:56;;;;;;;6.40;5.10;;;;;;;8.96;78.66;99918.19;107156;1257;67596;-39
2024/04/23 02:17:24;;;;;;;5.90;5.30;;;;;;;8.93;78.50;99920.26;107170;1258;72726;-39
2024/04/23 02:19:51;;;;;;;8.50;5.80;;;;;;;8.90;78.42;99922.39;107009;1257;61196;-39
2024/04/23 02:22:19;;;;;;;6.70;5.80;;;;;;;8.85;78.03;99928.17;107004;1257;61261;-39
2024/04/23 02:24:47;;;;;;;7.40;5.20;;;;;;;8.80;78.02;99927.30;107143;1258;74624;-39
2024/04/23 02:27:15;;;;;;;6.40;5.10;;;;;;;8.83;77.83;99927.86;107040;1257;66461;-38
2024/04/23 02:29:42;;;;;;;7.00;4.90;;;;;;;8.88;77.79;99929.98;107155;1257;72729;-38
2024/04/23 02:32:10;;;;;;;6.90;5.50;;;;;;;8.88;77.81;99931.13;107128;1259;61215;-38
2024/04/23 02:34:37;;;;;;;7.00;5.80;;;;;;;8.84;77.77;99932.60;107155;1258;61197;-38
2024/04/23 02:37:04;;;;;;;7.80;5.40;;;;;;;8.81;77.71;99932.80;107023;1257;74627;-38
2024/04/23 02:39:32;;;;;;;6.00;5.30;;;;;;;8.79;77.70;99933.13;107130;1257;66266;-37
2024/04/23 02:41:59;;;;;;;6.00;5.00;;;;;;;8.75;77.52;99931.84;107095;1262;72679;-37
2024/04/23 02:44:29;;;;;;;7.40;4.80;;;;;;;8.78;77.43;99935.48;106996;1259;61631;-38
2024/04/23 02:46:56;;;;;;;;;;;;;;;8.84;77.27;99936.14;107183;1257;60419;-38
2024/04/23 02:49:24;;;;;;;6.70;5.20;;;;;;;8.85;77.41;99943.55;106957;1257;74658;-38
2024/04/23 02:51:53;;;;;;;6.70;5.40;;;;;;;8.80;77.28;99947.23;107092;1257;68443;-38
2024/04/23 02:54:22;;;;;;;7.20;5.50;;;;;;;8.79;77.38;99956.67;107000;1258;72737;-38
2024/04/23 02:56:51;;;;;;;6.30;5.30;;;;;;;8.77;77.36;99956.45;106951;1257;61317;-38
2024/04/23 02:59:20;;;;;;;7.40;5.60;;;;;;;8.76;77.51;99953.95;107140;1257;61252;-38
2024/04/23 03:01:47;;;;;;;7.00;5.30;;;;;;;8.80;77.41;99950.69;107059;1257;74659;-38
2024/04/23 03:04:15;;;;;;;5.70;4.80;;;;;;;8.83;77.35;99955.67;107003;1257;67727;-38
2024/04/23 03:06:42;;;;;;;7.50;5.30;;;;;;;8.83;77.50;99958.50;107126;1259;72762;-38
2024/04/23 03:09:10;;;;;;;8.30;5.20;;;;;;;8.81;77.58;99962.31;107021;1257;60027;-39
2024/04/23 03:11:37;;;;;;;7.20;5.40;;;;;;;8.77;77.54;99964.43;107040;1257;60429;-38
2024/04/23 03:14:05;;;;;;;6.30;5.70;;;;;;;8.71;77.51;99959.83;107038;1257;73675;-39
2024/04/23 03:16:32;;;;;;;6.40;5.00;;;;;;;8.66;77.52;99963.89;107078;1257;67584;-39
2024/04/23 03:19:00;;;;;;;7.30;4.80;;;;;;;8.68;77.66;99967.97;107047;1258;72714;-39
2024/04/23 03:21:27;;;;;;;8.60;5.40;;;;;;;8.72;77.62;99967.41;107155;1259;61251;-39
2024/04/23 03:23:56;;;;;;;6.40;5.70;;;;;;;8.70;77.76;99969.60;107129;1258;61239;-39
2024/04/23 03:26:24;;;;;;;6.60;5.50;;;;;;;8.67;77.82;99971.25;107043;1258;75248;-39
2024/04/23 03:28:51;;;;;;;8.70;5.60;;;;;;;8.60;77.85;99969.91;107032;1264;66304;-39
2024/04/23 03:31:19;;;;;;;8.50;5.20;;;;;;;8.56;77.98;99971.08;107153;1261;72680;-39
2024/04/23 03:33:47;;;;;;;7.10;5.20;;;;;;;8.60;77.93;99974.30;107025;1259;61693;-39
2024/04/23 03:36:15;;;;;;;6.00;4.90;;;;;;;8.62;77.77;99975.31;107046;1257;60949;-39
2024/04/23 03:38:44;;;;;;;5.60;5.00;;;;;;;8.61;78.11;99981.38;107199;1257;74704;-39
2024/04/23 03:41:12;;;;;;;6.00;5.10;;;;;;;8.59;78.29;99983.02;107170;1257;67621;-39
2024/04/23 03:43:39;;;;;;;8.50;5.30;;;;;;;8.61;78.55;99987.46;107093;1257;72749;-39
2024/04/23 03:46:07;;;;;;;7.20;5.20;;;;;;;8.60;78.36;99990.52;107109;1259;60727;-38
2024/04/23 03:48:34;;;;;;;6.20;4.90;;;;;;;8.62;78.14;99992.46;106938;1257;61363;-39
2024/04/23 03:51:02;;;;;;;6.40;5.40;;;;;;;8.69;78.11;99998.81;107006;1258;74615;-39
2024/04/23 03:53:29;;;;;;;8.20;5.40;;;;;;;8.71;78.21;99998.80;107121;1257;66514;-39
2024/04/23 03:55:57;;;;;;;6.50;5.80;;;;;;;8.72;78.36;100003.79;107047;1257;72729;-39
2024/04/23 03:58:25;;;;;;;9.30;5.60;;;;;;;8.74;78.21;100004.93;107143;1257;61235;-39
2024/04/23 04:00:52;;;;;;;5.70;4.90;;;;;;;8.71;78.21;100005.60;107067;1257;60954;-39
2024/04/23 04:06:06;;;;;;;6.20;5.20;;;;;;;8.73;77.89;100007.01;107061;1257;67709;-39
2024/04/23 04:08:34;;;;;;;5.90;5.30;;;;;;;8.78;77.92;100012.11;107043;1259;72690;-39
2024/04/23 04:11:02;;;;;;;6.20;5.00;;;;;;;8.79;77.94;100012.45;107104;1257;61152;-39
2024/04/23 04:13:31;;;;;;;9.70;5.20;;;;;;;8.79;77.96;100014.56;107180;1257;60067;-39
2024/04/23 04:15:59;;;;;;;9.50;5.50;;;;;;;8.79;77.95;100015.48;107228;1257;73909;-39
2024/04/23 04:18:27;;;;;;;7.00;5.20;;;;;;;8.76;77.66;100010.65;107056;1257;67982;-39
2024/04/23 04:20:54;;;;;;;7.20;4.80;;;;;;;8.76;77.45;100007.94;107137;1257;72690;-39
2024/04/23 04:23:21;;;;;;;7.00;5.60;;;;;;;8.75;77.37;100002.65;107039;1259;61351;-39
2024/04/23 04:25:50;;;;;;;6.80;5.40;;;;;;;8.69;77.58;99999.91;107181;1258;61103;-39
2024/04/23 04:28:17;;;;;;;10.00;5.30;;;;;;;8.66;77.69;99998.02;107183;1257;73430;-39
2024/04/23 04:30:45;;;;;;;7.10;5.40;;;;;;;8.65;77.72;99992.10;107126;1258;67918;-39
2024/04/23 04:33:12;;;;;;;5.80;5.10;;;;;;;8.60;77.39;99984.40;107026;1259;71404;-39
2024/04/23 04:35:40;;;;;;;5.70;4.90;;;;;;;8.60;77.31;99990.92;107025;1258;61737;-39
2024/04/23 04:38:07;;;;;;;5.70;4.70;;;;;;;8.64;77.44;99996.48;107095;1257;61184;-39
2024/04/23 04:40:35;;;;;;;6.30;5.10;;;;;;;8.65;77.54;99996.96;107120;1258;74678;-39
2024/04/23 04:43:03;;;;;;;7.40;4.90;;;;;;;8.66;77.64;99994.44;107048;1262;66746;-39
2024/04/23 04:45:30;;;;;;;7.40;4.50;;;;;;;8.66;77.40;99992.92;107028;1257;74992;-39
2024/04/23 04:47:58;;;;;;;7.10;4.70;;;;;;;8.66;76.76;99992.76;106920;1259;59839;-39
2024/04/23 04:50:26;;;;;;;5.10;4.10;;;;;;;8.74;76.49;99999.23;106983;1257;61258;-39
2024/04/23 04:52:53;;;;;;;6.80;4.80;;;;;;;8.79;75.52;100003.27;107171;1258;73788;-39
2024/04/23 04:55:20;;;;;;;7.60;4.80;;;;;;;8.76;75.37;100008.51;107111;1258;68141;-39
2024/04/23 04:57:52;;;;;;;6.20;4.80;;;;;;;8.76;75.60;100011.11;107170;1258;71354;-39
2024/04/23 05:00:19;;;;;;;6.50;4.60;;;;;;;8.75;75.34;100009.48;107121;1259;60008;-39
2024/04/23 05:02:47;;;;;;;6.00;4.50;;;;;;;8.75;75.33;100012.54;107143;1258;59995;-39
2024/04/23 05:05:14;;;;;;;6.00;4.10;;;;;;;8.78;75.25;100013.27;107103;1257;74899;-38
2024/04/23 05:07:42;;;;;;;9.60;4.40;;;;;;;8.85;75.27;100013.67;107129;1257;67810;-39
2024/04/23 05:10:10;;;;;;;7.00;4.40;;;;;;;8.87;75.09;100016.23;107157;1262;72817;-39
2024/04/23 05:12:37;;;;;;;5.20;4.70;;;;;;;8.89;75.11;100018.92;107124;1259;61215;-38
2024/04/23 05:15:05;;;;;;;6.60;4.50;;;;;;;8.92;75.57;100017.10;107184;1258;61028;-38
2024/04/23 05:17:32;;;;;;;9.80;4.60;;;;;;;8.97;75.82;100017.61;107116;1257;74864;-38
2024/04/23 05:20:00;;;;;;;4.80;4.20;;;;;;;9.07;75.50;100019.51;107107;1258;65802;-38
2024/04/23 05:22:27;;;;;;;5.90;4.50;;;;;;;9.21;75.28;100023.39;107136;1258;71560;-39
2024/04/23 05:24:55;;;;;;;4.80;4.00;;;;;;;9.31;75.07;100023.02;107088;1259;60142;-38
2024/04/23 05:27:22;;;;;;;5.90;4.20;;;;;;;9.40;74.45;100019.09;107145;1256;61314;-39
2024/04/23 05:29:53;;;;;;;5.50;4.00;;;;;;;9.42;73.27;100023.87;107115;1258;74813;-39
2024/04/23 05:35:08;;;;;;;5.90;4.40;;;;;;;9.38;72.71;100023.73;107032;1258;72698;-39
2024/04/23 05:37:36;;;;;;;6.20;4.50;;;;;;;9.37;72.65;100024.18;107113;1259;61711;-39
2024/04/23 05:40:04;;;;;;;7.60;3.80;;;;;;;9.42;72.50;100033.86;107123;1257;61131;-39
2024/04/23 05:42:31;;;;;;;5.50;4.00;;;;;;;9.50;72.42;100028.71;107095;1260;74711;-39
2024/04/23 05:44:59;;;;;;;5.70;3.90;;;;;;;9.58;72.32;100028.12;107183;1257;68141;-39
2024/04/23 05:47:26;;;;;;;4.10;3.70;;;;;;;9.63;72.13;100026.42;107095;1257;72786;-39
2024/04/23 05:50:32;;;;;;;4.50;4.00;;;;;;;9.68;72.12;100028.39;107093;1257;61292;-39
2024/04/23 05:53:58;;;;;;;4.60;3.60;;;;;;;9.74;71.48;100037.86;107127;1257;62308;-39
2024/04/23 05:56:44;;;;;;;5.70;4.10;;;;;;;9.79;70.79;100041.17;107069;1257;74518;-39
2024/04/23 05:59:11;;;;;;;5.40;4.00;;;;;;;9.82;70.35;100040.91;107129;1257;68103;-39
2024/04/23 06:01:39;;;;;;;5.90;3.60;;;;;;;9.90;69.91;100041.80;107043;1257;72043;-39
2024/04/23 06:04:07;;;;;;;4.30;3.30;;;;;;;10.00;69.33;100040.88;107092;1257;61190;-39
2024/04/23 06:06:34;;;;;;;7.30;3.60;;;;;;;10.03;68.67;100044.84;107069;1257;61147;-39
2024/04/23 06:09:03;;;;;;;4.60;3.90;;;;;;;10.06;68.59;100046.63;107231;1257;76880;-39
2024/04/23 06:11:30;;;;;;;5.50;3.70;;;;;;;10.10;68.51;100048.45;107086;1257;66548;-39
2024/04/23 06:14:08;;;;;;;5.20;3.80;;;;;;;10.15;68.03;100052.39;107093;1258;71531;-38
2024/04/23 06:16:35;;;;;;;4.30;3.80;;;;;;;10.16;67.88;100048.35;107105;1258;61465;-39
2024/04/23 06:19:04;;;;;;;7.40;4.10;;;;;;;10.16;67.99;100052.30;107148;1257;61176;-39
2024/04/23 06:21:32;;;;;;;5.70;4.00;;;;;;;10.15;68.09;100051.40;107149;1260;73378;-39
2024/04/23 06:23:59;;;;;;;5.90;3.50;;;;;;;10.15;67.95;100046.94;107112;1262;70242;-39
2024/04/23 06:26:27;;;;;;;4.30;3.50;;;;;;;10.19;67.83;100036.98;107204;1259;73075;-39
2024/04/23 06:28:57;;;;;;;4.60;3.50;;;;;;;10.22;67.23;100034.70;107140;1259;61255;-39
2024/04/23 06:31:30;;;;;;;5.00;3.60;;;;;;;10.25;67.05;100044.40;107160;1257;62171;-39
2024/04/23 06:33:59;;;;;;;5.20;3.70;;;;;;;10.20;66.96;100043.00;107162;1258;72554;-39
2024/04/23 06:36:29;;;;;;;4.60;3.80;;;;;;;10.14;67.03;100044.48;107246;1257;68116;-38
2024/04/23 06:38:57;;;;;;;6.50;4.10;;;;;;;10.09;67.28;100046.31;107100;1259;74913;-39
2024/04/23 06:41:24;;;;;;;4.90;4.00;;;;;;;10.00;67.05;100047.84;107094;1261;61322;-39
2024/04/23 06:43:52;;;;;;;5.50;4.20;;;;;;;9.94;67.16;100047.17;107237;1258;61118;-39
2024/04/23 06:46:19;;;;;;;7.60;4.40;;;;;;;9.91;67.52;100047.17;107097;1257;75106;-39
2024/04/23 06:48:47;;;;;;;7.10;4.60;;;;;;;9.98;68.40;100048.77;107114;1259;70137;-39
2024/04/23 06:51:14;;;;;;;5.80;4.10;;;;;;;10.12;68.67;100045.81;107090;1258;71825;-39
2024/04/23 06:53:41;;;;;;;4.60;3.90;;;;;;;10.21;68.06;100049.91;107123;1258;61215;-39
2024/04/23 06:56:09;;;;;;;4.70;3.60;;;;;;;10.29;67.93;100046.84;107082;1257;61370;-39
2024/04/23 06:58:36;;;;;;;5.90;3.80;;;;;;;10.41;67.32;100047.30;107107;1257;74976;-39
2024/04/23 07:01:04;;;;;;;6.10;3.90;;;;;;;10.53;66.84;100046.31;107070;1257;67336;-39
2024/04/23 07:03:31;;;;;;;5.30;3.70;;;;;;;10.67;66.53;100050.06;107103;1258;71083;-39
2024/04/23 07:05:59;;;;;;;6.40;3.80;;;;;;;10.85;67.00;100043.64;107191;1257;61296;-39
2024/04/23 07:08:26;;;;;;;6.50;3.90;;;;;;;11.07;66.20;100045.72;107096;1257;60577;-38
2024/04/23 07:10:55;;;;;;;5.40;4.00;;;;;;;11.22;64.62;100039.55;106341;1257;1003524;-39
2024/04/23 07:13:23;;;;;;;5.10;4.10;;;;;;;11.32;63.27;100033.84;107260;1257;68221;-39
2024/04/23 07:15:50;;;;;;;5.40;3.60;;;;;;;11.43;64.11;100035.49;107065;1258;73950;-39
2024/04/23 07:18:18;;;;;;;6.80;4.30;;;;;;;11.53;63.02;100033.38;107016;1259;61282;-39
2024/04/23 07:20:45;;;;;;;4.80;4.20;;;;;;;11.57;62.54;100035.48;107192;1257;61161;-38
2024/04/23 07:23:14;;;;;;;6.60;3.90;;;;;;;11.60;63.02;100030.53;107066;1258;73791;-37
2024/04/23 07:25:48;;;;;;;6.00;4.00;;;;;;;11.68;62.71;100032.05;107100;1260;70176;-38
2024/04/23 07:28:16;;;;;;;4.10;3.70;;;;;;;11.78;61.66;100035.36;107051;1261;71536;-38
2024/04/23 07:30:44;;;;;;;4.20;3.60;;;;;;;11.78;60.13;100038.38;107076;1258;61311;-39
2024/04/23 07:33:11;;;;;;;7.30;3.60;;;;;;;11.71;60.32;100034.86;106978;1258;61290;-38
2024/04/23 07:35:39;;;;;;;3.90;3.20;;;;;;;11.67;59.91;100030.08;107080;1257;75620;-38
2024/04/23 07:38:08;;;;;;;4.40;3.50;;;;;;;11.62;60.32;100029.48;107109;1257;66922;-38
2024/04/23 07:40:36;;;;;;;6.60;4.00;;;;;;;11.61;61.35;100029.39;107241;1257;71274;-38
2024/04/23 07:43:04;;;;;;;3.80;3.40;;;;;;;11.61;61.09;100026.75;107195;1257;62000;-38
2024/04/23 07:45:35;;;;;;;6.50;3.90;;;;;;;11.53;60.76;100024.05;107124;1258;61176;-38
2024/04/23 07:48:03;;;;;;;5.40;4.20;;;;;;;11.41;60.75;100028.19;107032;1257;73977;-38
2024/04/23 07:50:30;;;;;;;4.70;3.50;;;;;;;11.31;60.76;100026.73;107068;1257;66581;-38
2024/04/23 07:53:05;;;;;;;4.70;3.80;;;;;;;11.22;61.25;100029.09;107038;1257;73081;-38
2024/04/23 07:55:33;;;;;;;4.60;4.00;;;;;;;11.17;61.18;100030.10;107077;1259;61229;-38
2024/04/23 07:58:01;;;;;;;5.10;3.40;;;;;;;11.14;61.19;100033.95;107084;1257;61120;-38
2024/04/23 08:00:31;;;;;;;5.00;3.40;;;;;;;11.20;61.25;100031.88;107056;1257;75420;-38
2024/04/23 08:02:59;;;;;;;6.00;3.80;;;;;;;11.34;61.10;100029.70;107165;1258;66854;-38
2024/04/23 08:05:27;;;;;;;3.40;3.10;;;;;;;11.45;60.98;100027.81;107176;1259;71002;-38
2024/04/23 08:07:54;;;;;;;6.00;3.40;;;;;;;11.58;60.80;100027.54;107053;1260;62237;-38
2024/04/23 08:10:22;;;;;;;4.30;3.30;;;;;;;11.75;60.66;100030.67;107180;1257;61908;-38
2024/04/23 08:12:52;;;;;;;5.90;3.60;;;;;;;11.93;60.53;100027.17;107169;1258;73488;-38
2024/04/23 08:15:21;;;;;;;5.20;3.80;;;;;;;12.11;59.82;100029.40;107239;1258;66827;-38
2024/04/23 08:17:49;;;;;;;5.10;3.70;;;;;;;12.18;59.29;100024.52;107117;1257;74900;-38
2024/04/23 08:20:17;;;;;;;4.20;3.50;;;;;;;12.23;59.52;100022.84;107206;1260;61225;-38
2024/04/23 08:22:44;;;;;;;4.30;3.60;;;;;;;12.35;59.93;100020.45;107045;1258;61288;-38
2024/04/23 08:25:15;;;;;;;5.40;3.70;;;;;;;12.45;59.44;100013.77;107052;1257;76790;-38
2024/04/23 08:27:47;;;;;;;4.60;3.80;;;;;;;12.56;59.69;100015.95;107074;1262;69813;-38
2024/04/23 08:30:19;;;;;;;4.10;3.60;;;;;;;12.66;60.04;100014.45;106960;1259;180310;-38
2024/04/23 08:34:50;;;;;;;3.80;3.30;;;;;;;13.04;59.60;100012.88;104275;1290;599722;-38
2024/04/23 08:37:17;;;;;;;4.20;2.90;;;;;;;13.25;57.51;100015.24;106718;1266;62171;-38
2024/04/23 08:39:44;;;;;;;4.00;3.20;;;;;;;13.27;56.93;100016.38;106727;1270;62199;-38
2024/04/23 08:42:13;;;;;;;3.40;2.90;;;;;;;13.20;56.54;100014.31;106791;1265;72196;-38
2024/04/23 08:44:41;;;;;;;4.70;3.50;;;;;;;13.17;57.06;100016.13;106568;1266;68944;-38
2024/04/23 08:47:09;;;;;;;4.90;3.60;;;;;;;13.29;58.05;100014.94;106659;1269;71847;-37
2024/04/23 08:49:37;;;;;;;3.90;3.50;;;;;;;13.48;57.85;100010.53;106556;1263;189893;-37
2024/04/23 08:52:06;;;;;;;5.40;3.30;;;;;;;13.69;57.95;100010.42;106775;1263;59911;-37
2024/04/23 08:54:34;;;;;;;5.20;3.50;;;;;;;13.93;56.51;100008.70;106904;1263;73423;-37
2024/04/23 08:57:01;;;;;;;4.80;3.30;;;;;;;14.09;54.98;100010.36;107041;1259;66621;-37
2024/04/23 08:59:29;;;;;;;3.60;2.90;;;;;;;14.15;53.64;100012.92;106969;1265;73459;-37
2024/04/23 09:02:04;;;;;;;4.50;3.50;;;;;;;14.03;53.70;100015.80;107113;1260;59681;-37
2024/04/23 09:04:31;;;;;;;4.30;3.50;;;;;;;13.82;53.99;100020.70;107068;1260;62183;-37
2024/04/23 09:06:59;;;;;;;4.30;3.10;;;;;;;13.65;54.22;100019.92;107039;1260;74901;-38
2024/04/23 09:09:26;;;;;;;4.00;3.00;;;;;;;13.57;54.58;100018.45;107026;1260;70191;-37
2024/04/23 09:11:55;;;;;;;4.30;2.90;;;;;;;13.56;54.69;100019.38;106859;1262;74906;-38
2024/04/23 09:14:23;;;;;;;5.00;3.10;;;;;;;13.60;54.30;100021.48;107007;1261;60979;-38
2024/04/23 09:16:51;;;;;;;4.00;3.20;;;;;;;13.60;53.63;100023.36;107026;1264;60309;-38
2024/04/23 09:19:20;;;;;;;3.10;2.70;;;;;;;13.57;54.02;100024.99;107000;1260;72736;-38
2024/04/23 09:21:47;;;;;;;4.70;3.00;;;;;;;13.61;54.47;100028.41;106901;1265;68234;-38
2024/04/23 09:24:15;;;;;;;3.40;2.90;;;;;;;13.70;54.79;100028.11;106845;1260;74983;-38
2024/04/23 09:26:43;;;;;;;3.40;2.90;;;;;;;13.77;53.75;100028.92;106861;1260;61023;-37
2024/04/23 09:29:12;;;;;;;3.90;2.80;;;;;;;13.80;53.91;100023.38;107022;1260;62212;-38
2024/04/23 09:31:42;;;;;;;3.30;2.90;;;;;;;13.84;53.80;100025.38;106886;1266;75915;-37
2024/04/23 09:34:12;;;;;;;3.40;2.80;;;;;;;13.84;53.26;100026.63;107055;1260;66837;-37
2024/04/23 09:36:40;;;;;;;4.60;2.90;;;;;;;13.77;53.57;100026.52;106996;1260;73097;-37
2024/04/23 09:39:14;;;;;;;3.60;2.20;;;;;;;13.72;53.81;100026.50;106944;1260;62159;-37
2024/04/23 09:41:42;;;;;;;3.70;2.60;;;;;;;13.65;53.08;100028.89;106944;1264;62254;-37
2024/04/23 09:44:10;;;;;;;3.20;2.80;;;;;;;13.62;53.38;100027.42;106813;1260;76068;-37
2024/04/23 09:46:38;;;;;;;3.90;2.90;;;;;;;13.73;53.65;100022.86;107042;1260;67814;-38
2024/04/23 09:49:06;;;;;;;4.60;3.30;;;;;;;14.00;52.58;100020.89;107032;1263;71511;-38
2024/04/23 09:51:33;;;;;;;5.10;2.40;;;;;;;14.23;52.17;100025.45;106996;1260;60830;-37
2024/04/23 09:54:01;;;;;;;4.90;2.40;;;;;;;14.42;51.82;100024.04;107013;1260;61324;-37
2024/04/23 09:56:29;;;;;;;2.90;2.50;;;;;;;14.54;52.16;100019.84;106994;1260;72763;-38
2024/04/23 09:58:57;;;;;;;2.30;2.00;;;;;;;14.67;51.57;100020.55;106812;1260;65986;-38
2024/04/23 10:01:27;;;;;;;2.70;2.10;;;;;;;14.70;50.65;100021.84;106786;1260;71522;-37
2024/04/23 10:04:02;;;;;;;2.60;2.20;;;;;;;14.68;51.19;100022.51;106916;1262;60513;-37
2024/04/23 10:06:35;;;;;;;3.50;2.60;;;;;;;14.62;50.93;100005.20;107057;1260;60416;-37
2024/04/23 10:09:24;;;;;;;3.20;2.20;;;;;;;14.90;50.91;100026.92;107020;1260;76077;-38
2024/04/23 10:12:05;;;;;;;4.60;2.50;;;;;;;15.05;49.67;100028.34;107014;1260;66523;-37
2024/04/23 10:14:50;;;;;;;3.30;2.40;;;;;;;15.03;49.29;100027.15;107025;1260;72793;-37
2024/04/23 10:17:41;;;;;;;2.60;1.90;;;;;;;14.92;48.97;100023.73;107013;1260;59286;-37
2024/04/23 10:20:09;;;;;;;3.00;2.30;;;;;;;14.77;49.75;100024.52;107016;1260;61286;-37
2024/04/23 10:22:37;;;;;;;3.20;2.10;;;;;;;14.71;49.81;100025.92;106862;1260;73135;-38
2024/04/23 10:25:05;;;;;;;2.80;2.00;;;;;;;14.80;50.02;100024.30;106867;1260;69847;-37
2024/04/23 10:27:33;;;;;;;5.70;2.40;;;;;;;15.03;49.58;100022.77;106932;1263;74869;-37
2024/04/23 10:30:00;;;;;;;2.50;2.10;;;;;;;15.31;49.74;100021.91;106879;1260;60471;-38
2024/04/23 10:32:28;;;;;;;2.30;2.10;;;;;;;15.71;48.73;100021.46;106894;1260;60291;-39
2024/04/23 10:34:56;;;;;;;3.90;2.20;;;;;;;16.02;47.04;100018.91;107004;1260;72639;-38
2024/04/23 10:37:25;;;;;;;2.70;1.70;;;;;;;16.17;47.40;100013.61;107063;1260;70060;-38
2024/04/23 10:39:53;;;;;;;2.50;2.00;;;;;;;16.34;46.97;100010.53;107010;1260;73635;-37
2024/04/23 10:42:21;;;;;;;2.50;2.00;;;;;;;16.56;46.83;100010.64;106887;1261;60332;-38
2024/04/23 10:44:48;;;;;;;1.90;1.70;;;;;;;16.83;45.91;100006.73;106907;1265;60339;-37
2024/04/23 10:47:16;;;;;;;2.30;2.10;;;;;;;16.92;45.14;100013.73;106987;1265;74260;-38
2024/04/23 10:49:43;;;;;;;2.50;1.80;;;;;;;16.91;44.60;100014.11;107005;1260;70273;-38
2024/04/23 10:52:11;;;;;;;3.50;2.20;;;;;;;16.83;44.96;100019.71;106780;1260;74800;-37
2024/04/23 10:54:39;;;;;;;2.90;2.10;;;;;;;16.78;45.53;100017.19;106864;1260;59597;-38
2024/04/23 10:57:09;;;;;;;2.10;1.60;;;;;;;16.95;45.82;100006.30;106996;1260;60308;-38
2024/04/23 10:59:37;;;;;;;2.10;1.90;;;;;;;17.44;45.92;100006.33;106992;1264;72735;-38
2024/04/23 11:02:09;;;;;;;2.40;1.80;;;;;;;17.88;43.46;100002.46;106979;1260;68018;-38
2024/04/23 11:04:40;;;;;;;3.70;2.10;;;;;;;18.19;43.12;100006.13;106868;1262;71529;-38
2024/04/23 11:07:09;;;;;;;2.90;2.30;;;;;;;18.32;42.38;99997.23;106922;1260;60438;-38
2024/04/23 11:09:41;;;;;;;2.20;1.80;;;;;;;18.31;42.76;100004.21;106895;1265;60722;-38
2024/04/23 11:12:17;;;;;;;2.20;1.90;;;;;;;18.36;42.55;99999.58;106856;1262;76522;-37
2024/04/23 11:14:44;;;;;;;1.70;1.60;;;;;;;18.45;41.84;100000.18;106807;1261;66869;-37
2024/04/23 11:17:12;;;;;;;5.30;2.10;;;;;;;18.51;42.16;99999.08;106759;1262;72831;-37
2024/04/23 11:19:41;;;;;;;3.10;2.00;;;;;;;18.61;42.29;100001.48;106845;1262;60417;-38
2024/04/23 11:22:10;;;;;;;2.10;1.60;;;;;;;18.61;42.29;99997.48;106917;1261;60311;-37
2024/04/23 11:25:00;;;;;;;2.50;1.90;;;;;;;18.33;42.31;99998.64;106874;1262;74257;-37
2024/04/23 11:27:30;;;;;;;3.10;2.10;;;;;;;17.80;42.82;99991.41;106910;1263;68056;-38
2024/04/23 11:29:58;;;;;;;2.60;2.00;;;;;;;17.36;43.23;99992.00;106788;1262;71552;-38
2024/04/23 11:32:26;;;;;;;3.50;2.00;;;;;;;16.97;43.33;99992.77;106834;1261;60943;-38
2024/04/23 11:34:54;;;;;;;4.30;2.30;;;;;;;16.62;44.20;99992.54;106890;1263;59313;-37
2024/04/23 11:37:24;;;;;;;2.60;2.10;;;;;;;16.29;45.50;99994.00;106906;1263;76020;-38
2024/04/23 11:39:56;;;;;;;2.30;1.80;;;;;;;16.01;46.11;99990.85;106823;1261;67509;-38